sensor_id;sensor_type;location;lat;lon;timestamp;temperature;humidity
44117;DHT22;29781;49.480;8.512;2024-03-02T00:00:07;8.00;99.90
44117;DHT22;29781;49.480;8.512;2024-03-02T00:02:42;8.10;99.90
44117;DHT22;29781;49.480;8.512;2024-03-02T00:05:11;8.00;99.90
44117;DHT22;29781;49.480;8.512;2024-03-02T00:07:37;8.00;99.90
44117;DHT22;29781;49.480;8.512;2024-03-02T00:10:09;8.00;99.90
44117;DHT22;29781;49.480;8.512;2024-03-02T00:12:36;8.00;99.90
44117;DHT22;29781;49.480;8.512;2024-03-02T00:15:03;7.90;99.90
44117;DHT22;29781;49.480;8.512;2024-03-02T00:17:29;7.80;99.90
44117;DHT22;29781;49.480;8.512;2024-03-02T00:19:55;7.80;99.90
44117;DHT22;29781;49.480;8.512;2024-03-02T00:22:21;7.90;99.90
44117;DHT22;29781;49.480;8.512;2024-03-02T00:24:46;7.90;99.90
44117;DHT22;29781;49.480;8.512;2024-03-02T00:27:14;7.90;99.90
44117;DHT22;29781;49.480;8.512;2024-03-02T00:29:40;7.90;99.90
44117;DHT22;29781;49.480;8.512;2024-03-02T00:32:13;7.90;99.90
44117;DHT22;29781;49.480;8.512;2024-03-02T00:34:39;7.80;99.90
44117;DHT22;29781;49.480;8.512;2024-03-02T00:37:05;7.70;99.90
44117;DHT22;29781;49.480;8.512;2024-03-02T00:39:31;7.80;99.90
44117;DHT22;29781;49.480;8.512;2024-03-02T00:41:56;7.80;99.90
44117;DHT22;29781;49.480;8.512;2024-03-02T00:44:25;7.80;99.90
44117;DHT22;29781;49.480;8.512;2024-03-02T00:46:51;7.80;99.90
44117;DHT22;29781;49.480;8.512;2024-03-02T00:49:23;7.90;99.90
44117;DHT22;29781;49.480;8.512;2024-03-02T00:51:50;7.90;99.90
44117;DHT22;29781;49.480;8.512;2024-03-02T00:54:23;7.90;99.90
44117;DHT22;29781;49.480;8.512;2024-03-02T00:56:50;7.90;99.90
44117;DHT22;29781;49.480;8.512;2024-03-02T00:59:16;7.80;99.90
44117;DHT22;29781;49.480;8.512;2024-03-02T01:01:41;7.80;99.90
44117;DHT22;29781;49.480;8.512;2024-03-02T01:04:08;7.70;99.90
44117;DHT22;29781;49.480;8.512;2024-03-02T01:06:37;7.60;99.90
44117;DHT22;29781;49.480;8.512;2024-03-02T01:09:03;7.30;99.90
44117;DHT22;29781;49.480;8.512;2024-03-02T01:11:29;7.20;99.90
44117;DHT22;29781;49.480;8.512;2024-03-02T01:13:55;7.20;99.90
44117;DHT22;29781;49.480;8.512;2024-03-02T01:16:21;7.30;99.90
44117;DHT22;29781;49.480;8.512;2024-03-02T01:18:46;7.40;99.90
44117;DHT22;29781;49.480;8.512;2024-03-02T01:21:12;7.60;99.90
44117;DHT22;29781;49.480;8.512;2024-03-02T01:23:37;7.60;99.90
44117;DHT22;29781;49.480;8.512;2024-03-02T01:26:03;7.70;99.90
44117;DHT22;29781;49.480;8.512;2024-03-02T01:28:29;7.80;99.90
44117;DHT22;29781;49.480;8.512;2024-03-02T01:30:54;7.80;99.90
44117;DHT22;29781;49.480;8.512;2024-03-02T01:33:20;7.70;99.90
44117;DHT22;29781;49.480;8.512;2024-03-02T01:35:46;7.70;99.90
44117;DHT22;29781;49.480;8.512;2024-03-02T01:38:12;7.70;99.90
44117;DHT22;29781;49.480;8.512;2024-03-02T01:40:38;7.70;99.90
44117;DHT22;29781;49.480;8.512;2024-03-02T01:43:07;7.70;99.90
44117;DHT22;29781;49.480;8.512;2024-03-02T01:45:33;7.60;99.90
44117;DHT22;29781;49.480;8.512;2024-03-02T01:48:00;7.60;99.90
44117;DHT22;29781;49.480;8.512;2024-03-02T01:50:27;7.50;99.90
44117;DHT22;29781;49.480;8.512;2024-03-02T01:52:55;7.50;99.90
44117;DHT22;29781;49.480;8.512;2024-03-02T01:55:20;7.50;99.90
44117;DHT22;29781;49.480;8.512;2024-03-02T01:57:46;7.40;99.90
44117;DHT22;29781;49.480;8.512;2024-03-02T02:00:13;7.30;99.90
44117;DHT22;29781;49.480;8.512;2024-03-02T02:02:39;7.40;99.90
44117;DHT22;29781;49.480;8.512;2024-03-02T02:05:05;7.30;99.90
44117;DHT22;29781;49.480;8.512;2024-03-02T02:07:30;7.30;99.90
44117;DHT22;29781;49.480;8.512;2024-03-02T02:09:57;7.30;99.90
44117;DHT22;29781;49.480;8.512;2024-03-02T02:12:22;7.30;99.90
44117;DHT22;29781;49.480;8.512;2024-03-02T02:14:49;7.30;99.90
44117;DHT22;29781;49.480;8.512;2024-03-02T02:17:17;7.30;99.90
44117;DHT22;29781;49.480;8.512;2024-03-02T02:19:43;7.30;99.90
44117;DHT22;29781;49.480;8.512;2024-03-02T02:22:12;7.30;99.90
44117;DHT22;29781;49.480;8.512;2024-03-02T02:24:41;7.30;99.90
44117;DHT22;29781;49.480;8.512;2024-03-02T02:27:07;7.20;99.90
44117;DHT22;29781;49.480;8.512;2024-03-02T02:29:33;7.10;99.90
44117;DHT22;29781;49.480;8.512;2024-03-02T02:31:59;7.20;99.90
44117;DHT22;29781;49.480;8.512;2024-03-02T02:34:24;7.10;99.90
44117;DHT22;29781;49.480;8.512;2024-03-02T02:36:50;7.30;99.90
44117;DHT22;29781;49.480;8.512;2024-03-02T02:39:18;7.30;99.90
44117;DHT22;29781;49.480;8.512;2024-03-02T02:41:44;7.30;99.90
44117;DHT22;29781;49.480;8.512;2024-03-02T02:44:09;7.30;99.90
44117;DHT22;29781;49.480;8.512;2024-03-02T02:46:38;7.30;99.90
44117;DHT22;29781;49.480;8.512;2024-03-02T02:49:04;7.30;99.90
44117;DHT22;29781;49.480;8.512;2024-03-02T02:51:29;6.90;99.90
44117;DHT22;29781;49.480;8.512;2024-03-02T02:53:55;6.80;99.90
44117;DHT22;29781;49.480;8.512;2024-03-02T02:56:20;6.90;99.90
44117;DHT22;29781;49.480;8.512;2024-03-02T02:58:46;7.00;99.90
44117;DHT22;29781;49.480;8.512;2024-03-02T03:01:11;7.10;99.90
44117;DHT22;29781;49.480;8.512;2024-03-02T03:03:37;7.10;99.90
44117;DHT22;29781;49.480;8.512;2024-03-02T03:06:03;7.10;99.90
44117;DHT22;29781;49.480;8.512;2024-03-02T03:08:28;7.10;99.90
44117;DHT22;29781;49.480;8.512;2024-03-02T03:10:54;7.00;99.90
44117;DHT22;29781;49.480;8.512;2024-03-02T03:13:19;7.00;99.90
44117;DHT22;29781;49.480;8.512;2024-03-02T03:15:45;7.10;99.90
44117;DHT22;29781;49.480;8.512;2024-03-02T03:18:11;7.10;99.90
44117;DHT22;29781;49.480;8.512;2024-03-02T03:20:36;7.10;99.90
44117;DHT22;29781;49.480;8.512;2024-03-02T03:23:02;7.10;99.90
44117;DHT22;29781;49.480;8.512;2024-03-02T03:25:29;7.10;99.90
44117;DHT22;29781;49.480;8.512;2024-03-02T03:27:55;7.10;99.90
44117;DHT22;29781;49.480;8.512;2024-03-02T03:30:20;7.20;99.90
44117;DHT22;29781;49.480;8.512;2024-03-02T03:32:46;7.20;99.90
44117;DHT22;29781;49.480;8.512;2024-03-02T03:35:13;7.20;99.90
44117;DHT22;29781;49.480;8.512;2024-03-02T03:37:40;7.10;99.90
44117;DHT22;29781;49.480;8.512;2024-03-02T03:40:06;7.00;99.90
44117;DHT22;29781;49.480;8.512;2024-03-02T03:42:39;7.00;99.90
44117;DHT22;29781;49.480;8.512;2024-03-02T03:45:05;7.00;99.90
44117;DHT22;29781;49.480;8.512;2024-03-02T03:47:32;6.80;99.90
44117;DHT22;29781;49.480;8.512;2024-03-02T03:49:57;6.90;99.90
44117;DHT22;29781;49.480;8.512;2024-03-02T03:52:23;7.00;99.90
44117;DHT22;29781;49.480;8.512;2024-03-02T03:54:49;7.00;99.90
44117;DHT22;29781;49.480;8.512;2024-03-02T03:57:15;6.90;99.90
44117;DHT22;29781;49.480;8.512;2024-03-02T03:59:40;6.80;99.90
44117;DHT22;29781;49.480;8.512;2024-03-02T04:02:06;6.80;99.90
44117;DHT22;29781;49.480;8.512;2024-03-02T04:04:32;6.90;99.90
44117;DHT22;29781;49.480;8.512;2024-03-02T04:06:58;7.10;99.90
44117;DHT22;29781;49.480;8.512;2024-03-02T04:09:24;7.10;99.90
44117;DHT22;29781;49.480;8.512;2024-03-02T04:11:50;7.10;99.90
44117;DHT22;29781;49.480;8.512;2024-03-02T04:14:16;7.10;99.90
44117;DHT22;29781;49.480;8.512;2024-03-02T04:16:42;7.10;99.90
44117;DHT22;29781;49.480;8.512;2024-03-02T04:19:07;7.10;99.90
44117;DHT22;29781;49.480;8.512;2024-03-02T04:21:33;7.10;99.90
44117;DHT22;29781;49.480;8.512;2024-03-02T04:23:58;7.10;99.90
44117;DHT22;29781;49.480;8.512;2024-03-02T04:26:27;7.10;99.90
44117;DHT22;29781;49.480;8.512;2024-03-02T04:28:53;7.10;99.90
44117;DHT22;29781;49.480;8.512;2024-03-02T04:31:19;7.10;99.90
44117;DHT22;29781;49.480;8.512;2024-03-02T04:33:45;7.10;99.90
44117;DHT22;29781;49.480;8.512;2024-03-02T04:36:10;7.00;99.90
44117;DHT22;29781;49.480;8.512;2024-03-02T04:38:37;7.00;99.90
44117;DHT22;29781;49.480;8.512;2024-03-02T04:41:03;7.00;99.90
44117;DHT22;29781;49.480;8.512;2024-03-02T04:43:29;7.00;99.90
44117;DHT22;29781;49.480;8.512;2024-03-02T04:45:54;7.00;99.90
44117;DHT22;29781;49.480;8.512;2024-03-02T04:48:20;6.90;99.90
44117;DHT22;29781;49.480;8.512;2024-03-02T04:50:47;6.90;99.90
44117;DHT22;29781;49.480;8.512;2024-03-02T04:53:12;6.90;99.90
44117;DHT22;29781;49.480;8.512;2024-03-02T04:55:38;6.80;99.90
44117;DHT22;29781;49.480;8.512;2024-03-02T04:58:06;6.70;99.90
44117;DHT22;29781;49.480;8.512;2024-03-02T05:00:33;6.80;99.90
44117;DHT22;29781;49.480;8.512;2024-03-02T05:02:58;6.80;99.90
44117;DHT22;29781;49.480;8.512;2024-03-02T05:05:24;6.70;99.90
44117;DHT22;29781;49.480;8.512;2024-03-02T05:07:49;6.70;99.90
44117;DHT22;29781;49.480;8.512;2024-03-02T05:10:15;6.70;99.90
44117;DHT22;29781;49.480;8.512;2024-03-02T05:12:41;6.80;99.90
44117;DHT22;29781;49.480;8.512;2024-03-02T05:15:10;6.80;99.90
44117;DHT22;29781;49.480;8.512;2024-03-02T05:17:37;6.80;99.90
44117;DHT22;29781;49.480;8.512;2024-03-02T05:20:07;6.80;99.90
44117;DHT22;29781;49.480;8.512;2024-03-02T05:22:36;6.70;99.90
44117;DHT22;29781;49.480;8.512;2024-03-02T05:25:03;6.70;99.90
44117;DHT22;29781;49.480;8.512;2024-03-02T05:27:28;6.70;99.90
44117;DHT22;29781;49.480;8.512;2024-03-02T05:29:54;6.70;99.90
44117;DHT22;29781;49.480;8.512;2024-03-02T05:32:20;6.70;99.90
44117;DHT22;29781;49.480;8.512;2024-03-02T05:34:45;6.60;99.90
44117;DHT22;29781;49.480;8.512;2024-03-02T05:37:11;6.50;99.90
44117;DHT22;29781;49.480;8.512;2024-03-02T05:39:37;6.50;99.90
44117;DHT22;29781;49.480;8.512;2024-03-02T05:42:02;6.50;99.90
44117;DHT22;29781;49.480;8.512;2024-03-02T05:44:28;6.70;99.90
44117;DHT22;29781;49.480;8.512;2024-03-02T05:46:54;6.70;99.90
44117;DHT22;29781;49.480;8.512;2024-03-02T05:49:19;6.80;99.90
44117;DHT22;29781;49.480;8.512;2024-03-02T05:51:45;6.80;99.90
44117;DHT22;29781;49.480;8.512;2024-03-02T05:54:10;6.80;99.90
44117;DHT22;29781;49.480;8.512;2024-03-02T05:56:36;6.70;99.90
44117;DHT22;29781;49.480;8.512;2024-03-02T05:59:01;6.60;99.90
44117;DHT22;29781;49.480;8.512;2024-03-02T06:01:43;6.60;99.90
44117;DHT22;29781;49.480;8.512;2024-03-02T06:04:09;6.50;99.90
44117;DHT22;29781;49.480;8.512;2024-03-02T06:06:36;6.50;99.90
44117;DHT22;29781;49.480;8.512;2024-03-02T06:09:02;6.40;99.90
44117;DHT22;29781;49.480;8.512;2024-03-02T06:11:33;6.30;99.90
44117;DHT22;29781;49.480;8.512;2024-03-02T06:13:58;6.10;99.90
44117;DHT22;29781;49.480;8.512;2024-03-02T06:16:24;6.10;99.90
44117;DHT22;29781;49.480;8.512;2024-03-02T06:18:49;6.10;99.90
44117;DHT22;29781;49.480;8.512;2024-03-02T06:21:15;5.90;99.90
44117;DHT22;29781;49.480;8.512;2024-03-02T06:23:40;5.90;99.90
44117;DHT22;29781;49.480;8.512;2024-03-02T06:26:06;6.00;99.90
44117;DHT22;29781;49.480;8.512;2024-03-02T06:28:32;6.00;99.90
44117;DHT22;29781;49.480;8.512;2024-03-02T06:30:57;5.90;99.90
44117;DHT22;29781;49.480;8.512;2024-03-02T06:33:23;6.00;99.90
44117;DHT22;29781;49.480;8.512;2024-03-02T06:35:48;6.30;99.90
44117;DHT22;29781;49.480;8.512;2024-03-02T06:38:14;6.50;99.90
44117;DHT22;29781;49.480;8.512;2024-03-02T06:40:40;6.50;99.90
44117;DHT22;29781;49.480;8.512;2024-03-02T06:43:06;6.50;99.90
44117;DHT22;29781;49.480;8.512;2024-03-02T06:45:31;6.70;99.90
44117;DHT22;29781;49.480;8.512;2024-03-02T06:47:59;6.70;99.90
44117;DHT22;29781;49.480;8.512;2024-03-02T06:50:24;6.70;99.90
44117;DHT22;29781;49.480;8.512;2024-03-02T06:52:50;6.80;99.90
44117;DHT22;29781;49.480;8.512;2024-03-02T06:55:15;6.80;99.90
44117;DHT22;29781;49.480;8.512;2024-03-02T06:57:41;6.80;99.90
44117;DHT22;29781;49.480;8.512;2024-03-02T07:00:07;6.70;99.90
44117;DHT22;29781;49.480;8.512;2024-03-02T07:02:34;6.70;99.90
44117;DHT22;29781;49.480;8.512;2024-03-02T07:05:00;6.70;99.90
44117;DHT22;29781;49.480;8.512;2024-03-02T07:07:25;6.60;99.90
44117;DHT22;29781;49.480;8.512;2024-03-02T07:09:51;6.70;99.90
44117;DHT22;29781;49.480;8.512;2024-03-02T07:12:16;6.70;99.90
44117;DHT22;29781;49.480;8.512;2024-03-02T07:14:42;6.70;99.90
44117;DHT22;29781;49.480;8.512;2024-03-02T07:17:26;6.80;99.90
44117;DHT22;29781;49.480;8.512;2024-03-02T07:19:52;6.90;99.90
44117;DHT22;29781;49.480;8.512;2024-03-02T07:22:17;6.90;99.90
44117;DHT22;29781;49.480;8.512;2024-03-02T07:24:43;6.90;99.90
44117;DHT22;29781;49.480;8.512;2024-03-02T07:27:11;6.90;99.90
44117;DHT22;29781;49.480;8.512;2024-03-02T07:29:38;6.90;99.90
44117;DHT22;29781;49.480;8.512;2024-03-02T07:32:04;6.90;99.90
44117;DHT22;29781;49.480;8.512;2024-03-02T07:34:30;7.00;99.90
44117;DHT22;29781;49.480;8.512;2024-03-02T07:36:56;7.10;99.90
44117;DHT22;29781;49.480;8.512;2024-03-02T07:39:21;7.20;99.90
44117;DHT22;29781;49.480;8.512;2024-03-02T07:41:47;7.30;99.90
44117;DHT22;29781;49.480;8.512;2024-03-02T07:44:13;7.30;99.90
44117;DHT22;29781;49.480;8.512;2024-03-02T07:46:41;7.40;99.90
44117;DHT22;29781;49.480;8.512;2024-03-02T07:49:06;7.50;99.90
44117;DHT22;29781;49.480;8.512;2024-03-02T07:51:33;7.50;99.90
44117;DHT22;29781;49.480;8.512;2024-03-02T07:53:58;7.60;99.90
44117;DHT22;29781;49.480;8.512;2024-03-02T07:56:24;7.70;99.90
44117;DHT22;29781;49.480;8.512;2024-03-02T07:58:49;7.80;99.90
44117;DHT22;29781;49.480;8.512;2024-03-02T08:01:15;7.90;99.90
44117;DHT22;29781;49.480;8.512;2024-03-02T08:03:41;8.00;99.90
44117;DHT22;29781;49.480;8.512;2024-03-02T08:06:06;8.20;99.90
44117;DHT22;29781;49.480;8.512;2024-03-02T08:08:32;8.20;99.90
44117;DHT22;29781;49.480;8.512;2024-03-02T08:10:57;8.40;99.90
44117;DHT22;29781;49.480;8.512;2024-03-02T08:13:23;8.70;99.90
44117;DHT22;29781;49.480;8.512;2024-03-02T08:15:49;8.90;99.90
44117;DHT22;29781;49.480;8.512;2024-03-02T08:18:14;9.00;99.90
44117;DHT22;29781;49.480;8.512;2024-03-02T08:20:40;9.40;99.90
44117;DHT22;29781;49.480;8.512;2024-03-02T08:23:06;9.60;99.90
44117;DHT22;29781;49.480;8.512;2024-03-02T08:25:33;9.80;99.90
44117;DHT22;29781;49.480;8.512;2024-03-02T08:27:59;10.00;99.90
44117;DHT22;29781;49.480;8.512;2024-03-02T08:30:24;10.10;99.90
44117;DHT22;29781;49.480;8.512;2024-03-02T08:32:50;10.10;99.90
44117;DHT22;29781;49.480;8.512;2024-03-02T08:35:15;10.20;99.90
44117;DHT22;29781;49.480;8.512;2024-03-02T08:37:42;10.20;99.90
44117;DHT22;29781;49.480;8.512;2024-03-02T08:40:09;10.10;99.90
44117;DHT22;29781;49.480;8.512;2024-03-02T08:42:35;10.00;99.90
44117;DHT22;29781;49.480;8.512;2024-03-02T08:45:01;10.10;99.90
44117;DHT22;29781;49.480;8.512;2024-03-02T08:47:27;10.00;99.90
44117;DHT22;29781;49.480;8.512;2024-03-02T08:49:53;10.00;99.90
44117;DHT22;29781;49.480;8.512;2024-03-02T08:52:18;10.00;99.90
44117;DHT22;29781;49.480;8.512;2024-03-02T08:54:44;10.00;99.90
44117;DHT22;29781;49.480;8.512;2024-03-02T08:57:10;10.10;99.90
44117;DHT22;29781;49.480;8.512;2024-03-02T08:59:35;10.20;99.90
44117;DHT22;29781;49.480;8.512;2024-03-02T09:02:01;10.10;99.90
44117;DHT22;29781;49.480;8.512;2024-03-02T09:04:27;10.30;99.90
44117;DHT22;29781;49.480;8.512;2024-03-02T09:06:52;10.50;99.90
44117;DHT22;29781;49.480;8.512;2024-03-02T09:09:18;10.60;99.90
44117;DHT22;29781;49.480;8.512;2024-03-02T09:11:45;10.90;99.90
44117;DHT22;29781;49.480;8.512;2024-03-02T09:14:11;11.20;99.90
44117;DHT22;29781;49.480;8.512;2024-03-02T09:16:37;11.60;99.90
44117;DHT22;29781;49.480;8.512;2024-03-02T09:19:03;11.90;99.90
44117;DHT22;29781;49.480;8.512;2024-03-02T09:21:28;12.10;99.90
44117;DHT22;29781;49.480;8.512;2024-03-02T09:23:55;12.20;99.90
44117;DHT22;29781;49.480;8.512;2024-03-02T09:26:21;12.10;99.90
44117;DHT22;29781;49.480;8.512;2024-03-02T09:28:46;11.80;99.90
44117;DHT22;29781;49.480;8.512;2024-03-02T09:31:12;11.80;99.90
44117;DHT22;29781;49.480;8.512;2024-03-02T09:33:37;12.00;99.90
44117;DHT22;29781;49.480;8.512;2024-03-02T09:36:04;12.10;99.90
44117;DHT22;29781;49.480;8.512;2024-03-02T09:38:32;12.20;99.90
44117;DHT22;29781;49.480;8.512;2024-03-02T09:41:00;12.50;99.90
44117;DHT22;29781;49.480;8.512;2024-03-02T09:43:26;12.60;99.90
44117;DHT22;29781;49.480;8.512;2024-03-02T09:45:52;13.30;99.90
44117;DHT22;29781;49.480;8.512;2024-03-02T09:48:18;13.70;99.90
44117;DHT22;29781;49.480;8.512;2024-03-02T09:50:46;14.30;99.90
44117;DHT22;29781;49.480;8.512;2024-03-02T09:53:12;14.00;99.90
44117;DHT22;29781;49.480;8.512;2024-03-02T09:55:37;14.30;99.90
44117;DHT22;29781;49.480;8.512;2024-03-02T09:58:04;14.40;99.90
44117;DHT22;29781;49.480;8.512;2024-03-02T10:00:30;14.60;99.90
44117;DHT22;29781;49.480;8.512;2024-03-02T10:02:55;14.80;99.90
44117;DHT22;29781;49.480;8.512;2024-03-02T10:05:25;15.10;99.90
44117;DHT22;29781;49.480;8.512;2024-03-02T10:07:59;14.90;99.90
44117;DHT22;29781;49.480;8.512;2024-03-02T10:10:40;15.20;99.90
44117;DHT22;29781;49.480;8.512;2024-03-02T10:13:09;14.80;99.90
44117;DHT22;29781;49.480;8.512;2024-03-02T10:15:36;14.60;99.90
44117;DHT22;29781;49.480;8.512;2024-03-02T10:18:03;14.30;99.90
44117;DHT22;29781;49.480;8.512;2024-03-02T10:20:29;14.50;99.90
44117;DHT22;29781;49.480;8.512;2024-03-02T10:22:55;14.90;99.90
44117;DHT22;29781;49.480;8.512;2024-03-02T10:25:31;15.30;99.90
44117;DHT22;29781;49.480;8.512;2024-03-02T10:28:00;15.20;99.90
44117;DHT22;29781;49.480;8.512;2024-03-02T10:30:27;15.30;99.90
44117;DHT22;29781;49.480;8.512;2024-03-02T10:32:55;15.10;99.90
44117;DHT22;29781;49.480;8.512;2024-03-02T10:35:22;14.80;99.90
44117;DHT22;29781;49.480;8.512;2024-03-02T10:37:52;14.90;99.90
44117;DHT22;29781;49.480;8.512;2024-03-02T10:40:18;15.10;99.90
44117;DHT22;29781;49.480;8.512;2024-03-02T10:42:47;14.90;99.90
44117;DHT22;29781;49.480;8.512;2024-03-02T10:45:15;15.40;99.90
44117;DHT22;29781;49.480;8.512;2024-03-02T10:47:44;15.30;99.90
44117;DHT22;29781;49.480;8.512;2024-03-02T10:50:11;15.80;99.90
44117;DHT22;29781;49.480;8.512;2024-03-02T10:52:37;15.60;99.90
44117;DHT22;29781;49.480;8.512;2024-03-02T10:55:05;14.80;99.90
44117;DHT22;29781;49.480;8.512;2024-03-02T11:00:12;14.80;99.90
44117;DHT22;29781;49.480;8.512;2024-03-02T11:02:46;15.30;99.90
44117;DHT22;29781;49.480;8.512;2024-03-02T11:05:26;15.70;99.90
44117;DHT22;29781;49.480;8.512;2024-03-02T11:08:12;15.90;99.90
44117;DHT22;29781;49.480;8.512;2024-03-02T11:10:45;16.00;99.90
44117;DHT22;29781;49.480;8.512;2024-03-02T11:13:12;16.20;99.90
44117;DHT22;29781;49.480;8.512;2024-03-02T11:15:40;16.40;99.90
44117;DHT22;29781;49.480;8.512;2024-03-02T11:18:09;16.30;99.90
44117;DHT22;29781;49.480;8.512;2024-03-02T11:20:39;16.20;99.90
44117;DHT22;29781;49.480;8.512;2024-03-02T11:23:06;14.90;99.90
44117;DHT22;29781;49.480;8.512;2024-03-02T11:25:32;14.50;99.90
44117;DHT22;29781;49.480;8.512;2024-03-02T11:28:07;15.50;99.90
44117;DHT22;29781;49.480;8.512;2024-03-02T11:33:04;16.00;99.90
44117;DHT22;29781;49.480;8.512;2024-03-02T11:35:36;15.70;99.90
44117;DHT22;29781;49.480;8.512;2024-03-02T11:38:03;15.30;99.90
44117;DHT22;29781;49.480;8.512;2024-03-02T11:40:29;15.60;99.90
44117;DHT22;29781;49.480;8.512;2024-03-02T11:42:56;16.50;99.90
44117;DHT22;29781;49.480;8.512;2024-03-02T11:45:28;16.80;99.90
44117;DHT22;29781;49.480;8.512;2024-03-02T11:47:55;17.40;99.90
44117;DHT22;29781;49.480;8.512;2024-03-02T11:50:29;18.30;99.90
44117;DHT22;29781;49.480;8.512;2024-03-02T11:52:56;18.20;99.90
44117;DHT22;29781;49.480;8.512;2024-03-02T11:55:23;18.00;99.90
44117;DHT22;29781;49.480;8.512;2024-03-02T11:57:52;17.70;99.90
44117;DHT22;29781;49.480;8.512;2024-03-02T12:00:18;17.90;99.90
44117;DHT22;29781;49.480;8.512;2024-03-02T12:02:46;18.10;99.90
44117;DHT22;29781;49.480;8.512;2024-03-02T12:05:15;18.10;99.90
44117;DHT22;29781;49.480;8.512;2024-03-02T12:07:42;18.20;99.90
44117;DHT22;29781;49.480;8.512;2024-03-02T12:10:08;18.60;99.90
44117;DHT22;29781;49.480;8.512;2024-03-02T12:12:34;18.90;99.90
44117;DHT22;29781;49.480;8.512;2024-03-02T12:15:00;19.10;99.90
44117;DHT22;29781;49.480;8.512;2024-03-02T12:17:27;19.10;99.90
44117;DHT22;29781;49.480;8.512;2024-03-02T12:19:52;18.40;99.90
44117;DHT22;29781;49.480;8.512;2024-03-02T12:22:18;17.70;99.90
44117;DHT22;29781;49.480;8.512;2024-03-02T12:24:44;18.80;99.90
44117;DHT22;29781;49.480;8.512;2024-03-02T12:27:14;19.20;99.90
44117;DHT22;29781;49.480;8.512;2024-03-02T12:29:40;19.50;99.90
44117;DHT22;29781;49.480;8.512;2024-03-02T12:32:06;19.90;99.60
44117;DHT22;29781;49.480;8.512;2024-03-02T12:34:32;19.90;99.00
44117;DHT22;29781;49.480;8.512;2024-03-02T12:36:58;20.50;98.40
44117;DHT22;29781;49.480;8.512;2024-03-02T12:39:23;21.60;97.40
44117;DHT22;29781;49.480;8.512;2024-03-02T12:41:50;22.30;95.40
44117;DHT22;29781;49.480;8.512;2024-03-02T12:44:17;23.10;93.30
44117;DHT22;29781;49.480;8.512;2024-03-02T12:46:42;21.40;93.30
44117;DHT22;29781;49.480;8.512;2024-03-02T12:49:10;21.50;93.10
44117;DHT22;29781;49.480;8.512;2024-03-02T12:51:39;20.30;94.30
44117;DHT22;29781;49.480;8.512;2024-03-02T12:54:11;18.00;95.90
44117;DHT22;29781;49.480;8.512;2024-03-02T12:56:37;16.90;97.70
44117;DHT22;29781;49.480;8.512;2024-03-02T12:59:04;16.20;98.20
44117;DHT22;29781;49.480;8.512;2024-03-02T13:01:30;15.80;99.80
44117;DHT22;29781;49.480;8.512;2024-03-02T13:03:57;16.00;99.90
44117;DHT22;29781;49.480;8.512;2024-03-02T13:06:23;16.40;99.00
44117;DHT22;29781;49.480;8.512;2024-03-02T13:08:49;16.50;99.10
44117;DHT22;29781;49.480;8.512;2024-03-02T13:11:16;16.10;99.90
44117;DHT22;29781;49.480;8.512;2024-03-02T13:13:42;15.50;99.90
44117;DHT22;29781;49.480;8.512;2024-03-02T13:16:11;15.70;99.80
44117;DHT22;29781;49.480;8.512;2024-03-02T13:18:38;15.60;99.90
44117;DHT22;29781;49.480;8.512;2024-03-02T13:21:03;15.80;99.90
44117;DHT22;29781;49.480;8.512;2024-03-02T13:23:29;15.70;99.90
44117;DHT22;29781;49.480;8.512;2024-03-02T13:25:57;15.70;99.90
44117;DHT22;29781;49.480;8.512;2024-03-02T13:28:24;15.50;99.90
44117;DHT22;29781;49.480;8.512;2024-03-02T13:30:50;15.80;99.90
44117;DHT22;29781;49.480;8.512;2024-03-02T13:33:15;15.90;99.90
44117;DHT22;29781;49.480;8.512;2024-03-02T13:35:41;16.00;99.90
44117;DHT22;29781;49.480;8.512;2024-03-02T13:38:07;15.90;99.90
44117;DHT22;29781;49.480;8.512;2024-03-02T13:40:33;16.00;99.90
44117;DHT22;29781;49.480;8.512;2024-03-02T13:43:02;16.00;99.90
44117;DHT22;29781;49.480;8.512;2024-03-02T13:45:27;15.80;99.90
44117;DHT22;29781;49.480;8.512;2024-03-02T13:47:53;15.90;99.90
44117;DHT22;29781;49.480;8.512;2024-03-02T13:50:19;16.00;99.90
44117;DHT22;29781;49.480;8.512;2024-03-02T13:52:45;15.90;99.90
44117;DHT22;29781;49.480;8.512;2024-03-02T13:55:10;16.00;99.90
44117;DHT22;29781;49.480;8.512;2024-03-02T13:57:36;16.00;99.90
44117;DHT22;29781;49.480;8.512;2024-03-02T14:00:03;16.10;99.90
44117;DHT22;29781;49.480;8.512;2024-03-02T14:02:28;16.10;99.90
44117;DHT22;29781;49.480;8.512;2024-03-02T14:04:54;16.10;99.90
44117;DHT22;29781;49.480;8.512;2024-03-02T14:07:20;16.00;99.90
44117;DHT22;29781;49.480;8.512;2024-03-02T14:09:46;16.10;99.90
44117;DHT22;29781;49.480;8.512;2024-03-02T14:12:12;15.90;99.90
44117;DHT22;29781;49.480;8.512;2024-03-02T14:14:38;15.90;99.90
44117;DHT22;29781;49.480;8.512;2024-03-02T14:17:04;15.90;99.90
44117;DHT22;29781;49.480;8.512;2024-03-02T14:19:31;15.90;99.90
44117;DHT22;29781;49.480;8.512;2024-03-02T14:21:57;15.90;99.90
44117;DHT22;29781;49.480;8.512;2024-03-02T14:24:23;15.90;99.90
44117;DHT22;29781;49.480;8.512;2024-03-02T14:26:54;16.00;99.90
44117;DHT22;29781;49.480;8.512;2024-03-02T14:29:19;16.00;99.90
44117;DHT22;29781;49.480;8.512;2024-03-02T14:31:45;16.00;99.90
44117;DHT22;29781;49.480;8.512;2024-03-02T14:34:14;16.00;99.90
44117;DHT22;29781;49.480;8.512;2024-03-02T14:36:39;15.90;99.90
44117;DHT22;29781;49.480;8.512;2024-03-02T14:39:05;15.90;99.90
44117;DHT22;29781;49.480;8.512;2024-03-02T14:41:35;15.90;99.90
44117;DHT22;29781;49.480;8.512;2024-03-02T14:44:01;16.00;99.90
44117;DHT22;29781;49.480;8.512;2024-03-02T14:46:26;16.00;99.90
44117;DHT22;29781;49.480;8.512;2024-03-02T14:48:52;16.00;99.90
44117;DHT22;29781;49.480;8.512;2024-03-02T14:51:18;16.10;99.90
44117;DHT22;29781;49.480;8.512;2024-03-02T14:53:43;16.10;99.90
44117;DHT22;29781;49.480;8.512;2024-03-02T14:56:09;16.10;99.90
44117;DHT22;29781;49.480;8.512;2024-03-02T14:58:35;16.00;99.90
44117;DHT22;29781;49.480;8.512;2024-03-02T15:01:02;16.00;99.90
44117;DHT22;29781;49.480;8.512;2024-03-02T15:03:28;16.10;99.90
44117;DHT22;29781;49.480;8.512;2024-03-02T15:05:54;16.10;99.90
44117;DHT22;29781;49.480;8.512;2024-03-02T15:08:19;16.00;99.90
44117;DHT22;29781;49.480;8.512;2024-03-02T15:10:45;15.90;99.90
44117;DHT22;29781;49.480;8.512;2024-03-02T15:13:11;15.80;99.90
44117;DHT22;29781;49.480;8.512;2024-03-02T15:15:36;15.80;99.90
44117;DHT22;29781;49.480;8.512;2024-03-02T15:18:02;15.80;99.90
44117;DHT22;29781;49.480;8.512;2024-03-02T15:20:29;15.80;99.90
44117;DHT22;29781;49.480;8.512;2024-03-02T15:22:55;15.80;99.90
44117;DHT22;29781;49.480;8.512;2024-03-02T15:25:20;15.70;99.90
44117;DHT22;29781;49.480;8.512;2024-03-02T15:27:46;15.70;99.90
44117;DHT22;29781;49.480;8.512;2024-03-02T15:30:11;15.60;99.90
44117;DHT22;29781;49.480;8.512;2024-03-02T15:32:37;15.60;99.90
44117;DHT22;29781;49.480;8.512;2024-03-02T15:35:05;15.50;99.90
44117;DHT22;29781;49.480;8.512;2024-03-02T15:37:30;15.40;99.90
44117;DHT22;29781;49.480;8.512;2024-03-02T15:39:56;15.40;99.90